Summerfield, North Carolina
Current Conditions -  °F | °C
As of 9:54 PM on Thursday 27 Nov 2014 (Local Time) from KGSO Reporting Station
Scattered Clouds Scattered Clouds  
Wind Chill: 30°   Ceiling: Unl
Heat Index: 37°   Visibility: 10mi
Dew Point: 23°   Wind: 10mph
Humidity: 57%   Direction: 320°NW
Pressure: 30.23"   Gusts: NA
Location:  36.21°N, 79.9°W
Report Text: KGSO 280254Z 32009KT 10SM SCT048 03/M05 A3023 RMK AO2 SLP242 T00281050 51015 $
Loading
Personal Weather Stations






























Interactive Weather Map New forecast layout! Learn more

10-Day Weather Forecast

Advertisements
Track Severe Weather on mobile